sensor_id;sensor_type;location;lat;lon;timestamp;P1;P2;P0
72031;PMS5003;49185;42.320;23.198;2022-07-01T00:00:07;16.67;14.67;8.33
72031;PMS5003;49185;42.320;23.198;2022-07-01T00:02:33;18.00;16.00;9.25
72031;PMS5003;49185;42.320;23.198;2022-07-01T00:04:58;15.00;15.00;8.00
72031;PMS5003;49185;42.320;23.198;2022-07-01T00:07:24;16.00;16.00;6.00
72031;PMS5003;49185;42.320;23.198;2022-07-01T00:09:49;17.00;16.00;8.00
72031;PMS5003;49185;42.320;23.198;2022-07-01T00:12:15;18.00;16.00;8.00
72031;PMS5003;49185;42.320;23.198;2022-07-01T00:14:40;17.00;15.00;7.00
72031;PMS5003;49185;42.320;23.198;2022-07-01T00:17:06;15.33;14.33;7.00
72031;PMS5003;49185;42.320;23.198;2022-07-01T00:19:31;15.00;13.00;6.00
72031;PMS5003;49185;42.320;23.198;2022-07-01T00:21:57;14.00;12.33;8.00
72031;PMS5003;49185;42.320;23.198;2022-07-01T00:24:22;16.00;15.00;7.00
72031;PMS5003;49185;42.320;23.198;2022-07-01T00:26:48;18.00;15.00;7.00
72031;PMS5003;49185;42.320;23.198;2022-07-01T00:29:13;16.00;14.00;7.00
72031;PMS5003;49185;42.320;23.198;2022-07-01T00:31:39;16.33;13.67;7.33
72031;PMS5003;49185;42.320;23.198;2022-07-01T00:34:04;17.00;14.00;6.00
72031;PMS5003;49185;42.320;23.198;2022-07-01T00:36:29;16.00;13.00;7.00
72031;PMS5003;49185;42.320;23.198;2022-07-01T00:38:55;16.00;13.00;7.00
72031;PMS5003;49185;42.320;23.198;2022-07-01T00:41:21;17.00;13.67;8.00
72031;PMS5003;49185;42.320;23.198;2022-07-01T00:43:47;17.00;15.00;9.00
72031;PMS5003;49185;42.320;23.198;2022-07-01T00:46:12;15.00;15.00;9.00
72031;PMS5003;49185;42.320;23.198;2022-07-01T00:48:38;14.33;14.33;7.00
72031;PMS5003;49185;42.320;23.198;2022-07-01T00:51:03;17.00;16.00;8.50
72031;PMS5003;49185;42.320;23.198;2022-07-01T00:53:29;16.00;15.00;7.00
72031;PMS5003;49185;42.320;23.198;2022-07-01T00:55:55;16.00;15.00;8.00
72031;PMS5003;49185;42.320;23.198;2022-07-01T00:58:21;15.00;15.00;8.00
72031;PMS5003;49185;42.320;23.198;2022-07-01T01:00:47;17.00;17.00;8.00
72031;PMS5003;49185;42.320;23.198;2022-07-01T01:03:12;17.33;15.33;8.00
72031;PMS5003;49185;42.320;23.198;2022-07-01T01:05:38;17.00;15.00;7.00
72031;PMS5003;49185;42.320;23.198;2022-07-01T01:08:06;14.75;13.75;6.75
72031;PMS5003;49185;42.320;23.198;2022-07-01T01:10:33;17.25;14.50;9.00
72031;PMS5003;49185;42.320;23.198;2022-07-01T01:13:01;17.00;16.00;7.75
72031;PMS5003;49185;42.320;23.198;2022-07-01T01:15:29;16.00;15.00;9.00
72031;PMS5003;49185;42.320;23.198;2022-07-01T01:17:55;14.00;14.00;7.25
72031;PMS5003;49185;42.320;23.198;2022-07-01T01:20:21;15.00;15.00;7.00
72031;PMS5003;49185;42.320;23.198;2022-07-01T01:22:46;16.00;15.00;8.00
72031;PMS5003;49185;42.320;23.198;2022-07-01T01:25:13;17.00;15.00;8.00
72031;PMS5003;49185;42.320;23.198;2022-07-01T01:27:38;16.00;16.00;8.00
72031;PMS5003;49185;42.320;23.198;2022-07-01T01:30:07;15.00;14.00;8.00
72031;PMS5003;49185;42.320;23.198;2022-07-01T01:32:34;15.00;14.00;7.00
72031;PMS5003;49185;42.320;23.198;2022-07-01T01:35:01;16.00;15.00;8.00
72031;PMS5003;49185;42.320;23.198;2022-07-01T01:37:27;16.00;15.00;7.00
72031;PMS5003;49185;42.320;23.198;2022-07-01T01:39:53;16.00;15.00;7.00
72031;PMS5003;49185;42.320;23.198;2022-07-01T01:42:19;18.00;18.00;8.00
72031;PMS5003;49185;42.320;23.198;2022-07-01T01:44:44;16.00;15.00;7.00
72031;PMS5003;49185;42.320;23.198;2022-07-01T01:47:10;15.00;14.00;7.00
72031;PMS5003;49185;42.320;23.198;2022-07-01T01:49:35;16.00;15.00;7.00
72031;PMS5003;49185;42.320;23.198;2022-07-01T01:52:00;17.00;16.00;7.00
72031;PMS5003;49185;42.320;23.198;2022-07-01T01:54:26;16.67;16.67;8.00
72031;PMS5003;49185;42.320;23.198;2022-07-01T01:56:52;17.75;17.75;8.75
72031;PMS5003;49185;42.320;23.198;2022-07-01T01:59:17;18.00;18.00;9.00
72031;PMS5003;49185;42.320;23.198;2022-07-01T02:01:43;18.67;16.67;10.00
72031;PMS5003;49185;42.320;23.198;2022-07-01T02:04:09;16.00;15.00;8.00
72031;PMS5003;49185;42.320;23.198;2022-07-01T02:06:34;17.00;15.00;7.00
72031;PMS5003;49185;42.320;23.198;2022-07-01T02:09:00;15.00;14.00;7.00
72031;PMS5003;49185;42.320;23.198;2022-07-01T02:11:25;15.67;14.33;8.00
72031;PMS5003;49185;42.320;23.198;2022-07-01T02:13:50;17.00;15.00;9.00
72031;PMS5003;49185;42.320;23.198;2022-07-01T02:16:16;16.00;15.00;8.00
72031;PMS5003;49185;42.320;23.198;2022-07-01T02:18:41;15.00;13.00;9.00
72031;PMS5003;49185;42.320;23.198;2022-07-01T02:21:07;13.00;12.00;6.33
72031;PMS5003;49185;42.320;23.198;2022-07-01T02:23:32;15.00;15.00;8.00
72031;PMS5003;49185;42.320;23.198;2022-07-01T02:25:58;17.00;17.00;9.00
72031;PMS5003;49185;42.320;23.198;2022-07-01T02:28:23;17.00;16.00;8.00
72031;PMS5003;49185;42.320;23.198;2022-07-01T02:30:49;17.67;17.67;8.67
72031;PMS5003;49185;42.320;23.198;2022-07-01T02:33:14;17.00;16.00;8.00
72031;PMS5003;49185;42.320;23.198;2022-07-01T02:35:40;18.00;16.00;7.00
72031;PMS5003;49185;42.320;23.198;2022-07-01T02:38:06;19.00;18.00;7.75
72031;PMS5003;49185;42.320;23.198;2022-07-01T02:40:33;18.00;17.00;7.50
72031;PMS5003;49185;42.320;23.198;2022-07-01T02:43:01;19.00;17.00;9.00
72031;PMS5003;49185;42.320;23.198;2022-07-01T02:45:26;19.00;18.00;9.00
72031;PMS5003;49185;42.320;23.198;2022-07-01T02:47:52;19.67;17.00;8.00
72031;PMS5003;49185;42.320;23.198;2022-07-01T02:50:17;19.67;16.67;7.00
72031;PMS5003;49185;42.320;23.198;2022-07-01T02:52:44;17.00;14.00;7.00
72031;PMS5003;49185;42.320;23.198;2022-07-01T02:55:12;18.00;14.75;8.75
72031;PMS5003;49185;42.320;23.198;2022-07-01T02:57:39;18.25;14.75;8.00
72031;PMS5003;49185;42.320;23.198;2022-07-01T03:00:06;18.00;15.00;7.00
72031;PMS5003;49185;42.320;23.198;2022-07-01T03:02:33;19.00;17.00;8.00
72031;PMS5003;49185;42.320;23.198;2022-07-01T03:04:59;16.75;15.75;8.00
72031;PMS5003;49185;42.320;23.198;2022-07-01T03:07:25;17.25;16.00;8.00
72031;PMS5003;49185;42.320;23.198;2022-07-01T03:09:51;18.00;17.67;8.00
72031;PMS5003;49185;42.320;23.198;2022-07-01T03:12:17;16.00;16.00;8.00
72031;PMS5003;49185;42.320;23.198;2022-07-01T03:14:43;17.00;16.00;9.00
72031;PMS5003;49185;42.320;23.198;2022-07-01T03:17:08;16.00;16.00;7.00
72031;PMS5003;49185;42.320;23.198;2022-07-01T03:19:33;17.67;16.67;8.33
72031;PMS5003;49185;42.320;23.198;2022-07-01T03:21:59;17.00;17.00;7.00
72031;PMS5003;49185;42.320;23.198;2022-07-01T03:24:24;15.67;15.67;7.67
72031;PMS5003;49185;42.320;23.198;2022-07-01T03:26:50;15.00;15.00;8.00
72031;PMS5003;49185;42.320;23.198;2022-07-01T03:29:15;16.00;16.00;8.00
72031;PMS5003;49185;42.320;23.198;2022-07-01T03:31:41;16.67;15.67;10.00
72031;PMS5003;49185;42.320;23.198;2022-07-01T03:34:06;23.00;20.00;14.67
72031;PMS5003;49185;42.320;23.198;2022-07-01T03:36:31;22.00;20.00;14.00
72031;PMS5003;49185;42.320;23.198;2022-07-01T03:38:57;19.00;18.00;11.00
72031;PMS5003;49185;42.320;23.198;2022-07-01T03:41:22;17.00;16.33;9.00
72031;PMS5003;49185;42.320;23.198;2022-07-01T03:43:47;16.00;16.00;8.00
72031;PMS5003;49185;42.320;23.198;2022-07-01T03:46:13;18.00;17.00;9.00
72031;PMS5003;49185;42.320;23.198;2022-07-01T03:48:38;18.00;15.33;7.33
72031;PMS5003;49185;42.320;23.198;2022-07-01T03:51:04;18.00;17.67;8.00
72031;PMS5003;49185;42.320;23.198;2022-07-01T03:53:29;17.33;17.33;9.00
72031;PMS5003;49185;42.320;23.198;2022-07-01T03:55:55;19.00;19.00;10.33
72031;PMS5003;49185;42.320;23.198;2022-07-01T03:58:20;19.00;19.00;9.00
72031;PMS5003;49185;42.320;23.198;2022-07-01T04:00:46;18.00;18.00;8.00
72031;PMS5003;49185;42.320;23.198;2022-07-01T04:03:11;18.00;18.00;10.00
72031;PMS5003;49185;42.320;23.198;2022-07-01T04:05:37;19.33;19.33;11.67
72031;PMS5003;49185;42.320;23.198;2022-07-01T04:08:04;18.50;18.50;9.25
72031;PMS5003;49185;42.320;23.198;2022-07-01T04:10:31;17.00;17.00;8.00
72031;PMS5003;49185;42.320;23.198;2022-07-01T04:12:58;16.50;16.00;8.00
72031;PMS5003;49185;42.320;23.198;2022-07-01T04:15:24;22.00;17.75;9.00
72031;PMS5003;49185;42.320;23.198;2022-07-01T04:17:50;18.67;15.00;8.00
72031;PMS5003;49185;42.320;23.198;2022-07-01T04:20:15;18.00;15.00;8.00
72031;PMS5003;49185;42.320;23.198;2022-07-01T04:22:41;18.00;14.00;7.00
72031;PMS5003;49185;42.320;23.198;2022-07-01T04:25:07;18.00;16.00;7.00
72031;PMS5003;49185;42.320;23.198;2022-07-01T04:27:32;17.50;17.00;7.00
72031;PMS5003;49185;42.320;23.198;2022-07-01T04:29:58;15.00;15.00;7.00
72031;PMS5003;49185;42.320;23.198;2022-07-01T04:32:24;15.00;15.00;6.25
72031;PMS5003;49185;42.320;23.198;2022-07-01T04:34:49;12.00;12.00;5.00
72031;PMS5003;49185;42.320;23.198;2022-07-01T04:37:15;13.00;13.00;5.67
72031;PMS5003;49185;42.320;23.198;2022-07-01T04:39:40;13.00;13.00;4.33
72031;PMS5003;49185;42.320;23.198;2022-07-01T04:42:06;12.00;12.00;7.33
72031;PMS5003;49185;42.320;23.198;2022-07-01T04:44:32;15.00;14.67;8.00
72031;PMS5003;49185;42.320;23.198;2022-07-01T04:46:59;22.50;20.75;13.00
72031;PMS5003;49185;42.320;23.198;2022-07-01T04:49:26;25.00;23.50;15.00
72031;PMS5003;49185;42.320;23.198;2022-07-01T04:51:52;22.00;21.00;13.75
72031;PMS5003;49185;42.320;23.198;2022-07-01T04:54:18;19.67;18.67;10.00
72031;PMS5003;49185;42.320;23.198;2022-07-01T04:56:43;18.67;18.67;10.00
72031;PMS5003;49185;42.320;23.198;2022-07-01T04:59:10;18.00;18.00;9.25
72031;PMS5003;49185;42.320;23.198;2022-07-01T05:01:36;17.00;17.00;10.00
72031;PMS5003;49185;42.320;23.198;2022-07-01T05:04:02;19.33;18.33;9.00
72031;PMS5003;49185;42.320;23.198;2022-07-01T05:06:27;20.00;19.00;10.00
72031;PMS5003;49185;42.320;23.198;2022-07-01T05:08:53;19.00;19.00;10.00
72031;PMS5003;49185;42.320;23.198;2022-07-01T05:11:19;20.50;20.50;10.75
72031;PMS5003;49185;42.320;23.198;2022-07-01T05:13:44;20.00;19.67;12.00
72031;PMS5003;49185;42.320;23.198;2022-07-01T05:16:10;17.00;17.00;11.00
72031;PMS5003;49185;42.320;23.198;2022-07-01T05:18:36;16.67;16.67;11.00
72031;PMS5003;49185;42.320;23.198;2022-07-01T05:21:02;16.50;16.50;8.75
72031;PMS5003;49185;42.320;23.198;2022-07-01T05:23:27;17.00;16.00;7.00
72031;PMS5003;49185;42.320;23.198;2022-07-01T05:25:52;17.00;16.00;8.00
72031;PMS5003;49185;42.320;23.198;2022-07-01T05:28:18;18.33;17.00;10.00
72031;PMS5003;49185;42.320;23.198;2022-07-01T05:30:43;18.67;17.67;9.00
72031;PMS5003;49185;42.320;23.198;2022-07-01T05:33:09;20.00;19.00;10.00
72031;PMS5003;49185;42.320;23.198;2022-07-01T05:35:35;18.00;17.00;9.00
72031;PMS5003;49185;42.320;23.198;2022-07-01T05:38:00;18.00;16.00;10.00
72031;PMS5003;49185;42.320;23.198;2022-07-01T05:40:26;20.00;18.00;8.33
72031;PMS5003;49185;42.320;23.198;2022-07-01T05:42:51;16.00;14.33;7.33
72031;PMS5003;49185;42.320;23.198;2022-07-01T05:45:17;16.00;15.00;7.00
72031;PMS5003;49185;42.320;23.198;2022-07-01T05:47:43;17.00;16.00;9.00
72031;PMS5003;49185;42.320;23.198;2022-07-01T05:50:08;14.00;14.00;8.00
72031;PMS5003;49185;42.320;23.198;2022-07-01T05:52:34;15.75;15.75;7.00
72031;PMS5003;49185;42.320;23.198;2022-07-01T05:54:59;15.00;15.00;7.00
72031;PMS5003;49185;42.320;23.198;2022-07-01T05:57:25;15.00;14.00;6.67
72031;PMS5003;49185;42.320;23.198;2022-07-01T05:59:50;14.00;13.00;7.00
72031;PMS5003;49185;42.320;23.198;2022-07-01T06:02:16;14.00;13.00;6.00
72031;PMS5003;49185;42.320;23.198;2022-07-01T06:04:41;14.00;14.00;7.00
72031;PMS5003;49185;42.320;23.198;2022-07-01T06:07:07;14.33;14.33;7.33
72031;PMS5003;49185;42.320;23.198;2022-07-01T06:09:32;15.00;15.00;7.00
72031;PMS5003;49185;42.320;23.198;2022-07-01T06:11:57;14.00;14.00;7.67
72031;PMS5003;49185;42.320;23.198;2022-07-01T06:14:23;16.00;15.00;8.00
72031;PMS5003;49185;42.320;23.198;2022-07-01T06:16:48;16.67;14.67;8.00
72031;PMS5003;49185;42.320;23.198;2022-07-01T06:19:14;16.00;14.00;7.00
72031;PMS5003;49185;42.320;23.198;2022-07-01T06:21:39;15.00;15.00;7.33
72031;PMS5003;49185;42.320;23.198;2022-07-01T06:24:04;15.00;15.00;9.33
72031;PMS5003;49185;42.320;23.198;2022-07-01T06:26:30;15.00;14.00;10.00
72031;PMS5003;49185;42.320;23.198;2022-07-01T06:28:55;17.00;16.67;11.00
72031;PMS5003;49185;42.320;23.198;2022-07-01T06:31:21;19.00;18.00;12.00
72031;PMS5003;49185;42.320;23.198;2022-07-01T06:33:46;16.33;16.33;9.33
72031;PMS5003;49185;42.320;23.198;2022-07-01T06:36:11;19.00;18.00;11.00
72031;PMS5003;49185;42.320;23.198;2022-07-01T06:38:37;17.67;17.67;8.00
72031;PMS5003;49185;42.320;23.198;2022-07-01T06:41:02;17.00;17.00;9.00
72031;PMS5003;49185;42.320;23.198;2022-07-01T06:43:28;17.33;17.00;8.00
72031;PMS5003;49185;42.320;23.198;2022-07-01T06:45:54;18.00;17.25;9.50
72031;PMS5003;49185;42.320;23.198;2022-07-01T06:48:20;17.00;17.00;8.00
72031;PMS5003;49185;42.320;23.198;2022-07-01T06:50:45;14.33;13.00;7.00
72031;PMS5003;49185;42.320;23.198;2022-07-01T06:53:11;14.67;14.00;7.67
72031;PMS5003;49185;42.320;23.198;2022-07-01T06:55:36;16.67;16.67;8.00
72031;PMS5003;49185;42.320;23.198;2022-07-01T06:58:01;15.00;15.00;7.00
72031;PMS5003;49185;42.320;23.198;2022-07-01T07:00:27;15.00;14.00;8.00
72031;PMS5003;49185;42.320;23.198;2022-07-01T07:02:52;18.00;16.00;7.00
72031;PMS5003;49185;42.320;23.198;2022-07-01T07:05:18;16.00;15.00;7.67
72031;PMS5003;49185;42.320;23.198;2022-07-01T07:07:43;16.00;14.00;8.00
72031;PMS5003;49185;42.320;23.198;2022-07-01T07:10:09;15.33;14.00;8.00
72031;PMS5003;49185;42.320;23.198;2022-07-01T07:12:34;15.00;14.00;7.33
72031;PMS5003;49185;42.320;23.198;2022-07-01T07:15:00;13.00;12.00;6.00
72031;PMS5003;49185;42.320;23.198;2022-07-01T07:17:25;11.33;11.00;6.00
72031;PMS5003;49185;42.320;23.198;2022-07-01T07:19:51;12.00;11.00;6.00
72031;PMS5003;49185;42.320;23.198;2022-07-01T07:22:16;8.00;8.00;6.00
72031;PMS5003;49185;42.320;23.198;2022-07-01T07:24:42;9.00;9.00;6.00
72031;PMS5003;49185;42.320;23.198;2022-07-01T07:27:07;11.00;11.00;6.00
72031;PMS5003;49185;42.320;23.198;2022-07-01T07:29:33;13.33;13.33;7.00
72031;PMS5003;49185;42.320;23.198;2022-07-01T07:31:58;14.33;13.33;7.00
72031;PMS5003;49185;42.320;23.198;2022-07-01T07:34:24;10.00;9.00;6.00
72031;PMS5003;49185;42.320;23.198;2022-07-01T07:36:49;8.00;8.00;5.00
72031;PMS5003;49185;42.320;23.198;2022-07-01T07:39:15;11.00;11.00;6.00
72031;PMS5003;49185;42.320;23.198;2022-07-01T07:41:40;12.00;12.00;7.00
72031;PMS5003;49185;42.320;23.198;2022-07-01T07:44:06;13.00;13.00;7.00
72031;PMS5003;49185;42.320;23.198;2022-07-01T07:46:31;14.00;13.00;7.00
72031;PMS5003;49185;42.320;23.198;2022-07-01T07:48:56;14.00;12.00;7.00
72031;PMS5003;49185;42.320;23.198;2022-07-01T07:51:22;15.00;13.00;7.00
72031;PMS5003;49185;42.320;23.198;2022-07-01T07:53:47;16.00;15.00;7.00
72031;PMS5003;49185;42.320;23.198;2022-07-01T07:56:13;14.00;13.33;6.00
72031;PMS5003;49185;42.320;23.198;2022-07-01T07:58:38;15.00;15.00;8.00
72031;PMS5003;49185;42.320;23.198;2022-07-01T08:01:04;14.00;14.00;8.00
72031;PMS5003;49185;42.320;23.198;2022-07-01T08:03:29;13.00;13.00;7.00
72031;PMS5003;49185;42.320;23.198;2022-07-01T08:05:54;13.67;13.00;8.00
72031;PMS5003;49185;42.320;23.198;2022-07-01T08:08:20;15.00;14.00;7.00
72031;PMS5003;49185;42.320;23.198;2022-07-01T08:10:45;14.00;14.00;7.00
72031;PMS5003;49185;42.320;23.198;2022-07-01T08:13:11;13.00;13.00;7.00
72031;PMS5003;49185;42.320;23.198;2022-07-01T08:15:36;13.00;12.00;7.00
72031;PMS5003;49185;42.320;23.198;2022-07-01T08:18:01;14.00;12.00;6.00
72031;PMS5003;49185;42.320;23.198;2022-07-01T08:20:27;16.00;14.33;7.00
72031;PMS5003;49185;42.320;23.198;2022-07-01T08:22:52;15.33;15.00;9.67
72031;PMS5003;49185;42.320;23.198;2022-07-01T08:25:18;15.00;15.00;7.00
72031;PMS5003;49185;42.320;23.198;2022-07-01T08:27:43;13.00;13.00;7.67
72031;PMS5003;49185;42.320;23.198;2022-07-01T08:30:09;14.33;14.00;9.00
72031;PMS5003;49185;42.320;23.198;2022-07-01T08:32:35;15.00;15.00;8.00
72031;PMS5003;49185;42.320;23.198;2022-07-01T08:35:00;15.67;15.00;8.00
72031;PMS5003;49185;42.320;23.198;2022-07-01T08:37:25;17.00;17.00;9.00
72031;PMS5003;49185;42.320;23.198;2022-07-01T08:39:52;17.50;16.50;9.25
72031;PMS5003;49185;42.320;23.198;2022-07-01T08:42:17;18.00;17.00;9.00
72031;PMS5003;49185;42.320;23.198;2022-07-01T08:44:43;17.00;17.00;10.00
72031;PMS5003;49185;42.320;23.198;2022-07-01T08:47:11;18.00;17.00;11.00
72031;PMS5003;49185;42.320;23.198;2022-07-01T08:49:37;18.00;17.00;11.00
72031;PMS5003;49185;42.320;23.198;2022-07-01T08:52:03;17.00;17.00;9.67
72031;PMS5003;49185;42.320;23.198;2022-07-01T08:54:28;19.00;17.00;10.00
72031;PMS5003;49185;42.320;23.198;2022-07-01T08:56:54;19.00;17.00;10.00
72031;PMS5003;49185;42.320;23.198;2022-07-01T08:59:23;20.00;17.00;9.33
72031;PMS5003;49185;42.320;23.198;2022-07-01T09:01:57;18.00;16.00;9.00
72031;PMS5003;49185;42.320;23.198;2022-07-01T09:04:27;18.00;17.50;9.00
72031;PMS5003;49185;42.320;23.198;2022-07-01T09:06:58;19.00;16.00;10.00
72031;PMS5003;49185;42.320;23.198;2022-07-01T09:09:27;17.00;14.75;9.00
72031;PMS5003;49185;42.320;23.198;2022-07-01T09:11:53;16.00;13.67;8.00
72031;PMS5003;49185;42.320;23.198;2022-07-01T09:14:21;19.50;16.50;10.75
72031;PMS5003;49185;42.320;23.198;2022-07-01T09:16:51;18.00;17.00;10.00
72031;PMS5003;49185;42.320;23.198;2022-07-01T09:19:19;17.00;17.00;9.00
72031;PMS5003;49185;42.320;23.198;2022-07-01T09:21:52;17.25;16.25;9.75
72031;PMS5003;49185;42.320;23.198;2022-07-01T09:29:27;16.50;16.50;10.00
72031;PMS5003;49185;42.320;23.198;2022-07-01T09:31:57;19.75;19.00;10.00
72031;PMS5003;49185;42.320;23.198;2022-07-01T09:34:23;19.00;17.00;9.00
72031;PMS5003;49185;42.320;23.198;2022-07-01T09:36:53;19.00;16.00;10.00
72031;PMS5003;49185;42.320;23.198;2022-07-01T09:39:21;18.00;17.00;11.00
72031;PMS5003;49185;42.320;23.198;2022-07-01T09:41:47;17.00;16.33;10.00
72031;PMS5003;49185;42.320;23.198;2022-07-01T09:44:13;18.33;17.67;10.00
72031;PMS5003;49185;42.320;23.198;2022-07-01T09:46:39;17.33;17.00;9.33
72031;PMS5003;49185;42.320;23.198;2022-07-01T09:49:17;18.00;16.00;9.00
72031;PMS5003;49185;42.320;23.198;2022-07-01T09:51:43;17.00;16.00;9.00
72031;PMS5003;49185;42.320;23.198;2022-07-01T09:54:10;18.00;18.00;11.00
72031;PMS5003;49185;42.320;23.198;2022-07-01T09:56:37;17.75;17.75;10.75
72031;PMS5003;49185;42.320;23.198;2022-07-01T09:59:03;18.33;17.33;10.00
72031;PMS5003;49185;42.320;23.198;2022-07-01T10:01:28;17.33;16.33;10.33
72031;PMS5003;49185;42.320;23.198;2022-07-01T10:03:56;18.00;18.00;10.00
72031;PMS5003;49185;42.320;23.198;2022-07-01T10:06:42;18.00;18.00;10.00
72031;PMS5003;49185;42.320;23.198;2022-07-01T10:09:21;17.00;17.00;9.00
72031;PMS5003;49185;42.320;23.198;2022-07-01T10:14:30;17.00;17.00;8.00
72031;PMS5003;49185;42.320;23.198;2022-07-01T10:16:57;16.00;16.00;8.00
72031;PMS5003;49185;42.320;23.198;2022-07-01T10:19:26;15.00;14.00;7.33
72031;PMS5003;49185;42.320;23.198;2022-07-01T10:21:53;14.50;13.75;9.75
72031;PMS5003;49185;42.320;23.198;2022-07-01T10:24:20;12.25;12.25;8.25
72031;PMS5003;49185;42.320;23.198;2022-07-01T10:26:46;12.00;12.00;7.00
72031;PMS5003;49185;42.320;23.198;2022-07-01T10:29:31;14.67;14.00;8.00
72031;PMS5003;49185;42.320;23.198;2022-07-01T10:32:48;15.00;14.00;7.00
72031;PMS5003;49185;42.320;23.198;2022-07-01T10:35:02;15.00;15.00;8.00
72031;PMS5003;49185;42.320;23.198;2022-07-01T10:37:29;15.00;14.00;7.25
72031;PMS5003;49185;42.320;23.198;2022-07-01T10:40:01;14.00;13.00;6.00
72031;PMS5003;49185;42.320;23.198;2022-07-01T10:42:32;14.75;13.75;8.00
72031;PMS5003;49185;42.320;23.198;2022-07-01T10:45:02;17.00;15.00;6.00
72031;PMS5003;49185;42.320;23.198;2022-07-01T10:47:33;16.50;14.50;6.50
72031;PMS5003;49185;42.320;23.198;2022-07-01T10:50:09;17.00;15.00;7.00
72031;PMS5003;49185;42.320;23.198;2022-07-01T10:52:38;11.75;10.50;5.00
72031;PMS5003;49185;42.320;23.198;2022-07-01T10:55:24;7.00;7.00;5.00
72031;PMS5003;49185;42.320;23.198;2022-07-01T10:58:01;7.00;7.00;4.00
72031;PMS5003;49185;42.320;23.198;2022-07-01T11:00:27;4.00;4.00;2.00
72031;PMS5003;49185;42.320;23.198;2022-07-01T11:02:54;5.00;5.00;2.00
72031;PMS5003;49185;42.320;23.198;2022-07-01T11:05:19;5.00;5.00;3.00
72031;PMS5003;49185;42.320;23.198;2022-07-01T11:07:47;6.00;6.00;2.00
72031;PMS5003;49185;42.320;23.198;2022-07-01T11:10:14;4.00;4.00;2.00
72031;PMS5003;49185;42.320;23.198;2022-07-01T11:12:41;4.00;4.00;3.00
72031;PMS5003;49185;42.320;23.198;2022-07-01T11:15:07;5.75;5.75;3.50
72031;PMS5003;49185;42.320;23.198;2022-07-01T11:17:34;6.00;6.00;3.25
72031;PMS5003;49185;42.320;23.198;2022-07-01T11:20:00;7.50;7.00;3.00
72031;PMS5003;49185;42.320;23.198;2022-07-01T11:22:27;5.25;5.25;3.50
72031;PMS5003;49185;42.320;23.198;2022-07-01T11:24:56;4.75;4.75;3.00
72031;PMS5003;49185;42.320;23.198;2022-07-01T11:27:22;5.00;5.00;4.00
72031;PMS5003;49185;42.320;23.198;2022-07-01T11:29:51;5.00;5.00;4.00
72031;PMS5003;49185;42.320;23.198;2022-07-01T11:32:25;5.00;5.00;3.75
72031;PMS5003;49185;42.320;23.198;2022-07-01T11:34:55;6.00;6.00;4.25
72031;PMS5003;49185;42.320;23.198;2022-07-01T11:37:21;5.50;5.50;3.00
72031;PMS5003;49185;42.320;23.198;2022-07-01T11:39:47;7.00;6.25;2.25
72031;PMS5003;49185;42.320;23.198;2022-07-01T11:42:12;6.00;6.00;2.00
72031;PMS5003;49185;42.320;23.198;2022-07-01T11:44:39;5.00;5.00;2.00
72031;PMS5003;49185;42.320;23.198;2022-07-01T11:47:07;5.00;5.00;3.00
72031;PMS5003;49185;42.320;23.198;2022-07-01T11:49:39;5.25;5.25;3.00
72031;PMS5003;49185;42.320;23.198;2022-07-01T11:52:09;5.50;5.00;3.00
72031;PMS5003;49185;42.320;23.198;2022-07-01T11:54:38;7.00;6.00;4.00
72031;PMS5003;49185;42.320;23.198;2022-07-01T11:57:18;7.00;7.00;3.75
72031;PMS5003;49185;42.320;23.198;2022-07-01T11:59:45;7.00;5.75;3.00
72031;PMS5003;49185;42.320;23.198;2022-07-01T12:02:14;5.25;5.25;2.00
72031;PMS5003;49185;42.320;23.198;2022-07-01T12:04:41;6.25;6.25;4.00
72031;PMS5003;49185;42.320;23.198;2022-07-01T12:07:08;7.00;7.00;3.00
72031;PMS5003;49185;42.320;23.198;2022-07-01T12:09:35;7.25;7.00;3.25
72031;PMS5003;49185;42.320;23.198;2022-07-01T12:12:01;6.67;6.00;3.00
72031;PMS5003;49185;42.320;23.198;2022-07-01T12:14:31;6.00;6.00;3.00
72031;PMS5003;49185;42.320;23.198;2022-07-01T12:17:01;5.00;5.00;2.50
72031;PMS5003;49185;42.320;23.198;2022-07-01T12:22:08;7.00;6.00;3.00
72031;PMS5003;49185;42.320;23.198;2022-07-01T12:24:35;6.25;6.25;2.50
72031;PMS5003;49185;42.320;23.198;2022-07-01T12:27:02;7.50;7.25;4.00
72031;PMS5003;49185;42.320;23.198;2022-07-01T12:29:30;7.50;7.25;4.00
72031;PMS5003;49185;42.320;23.198;2022-07-01T12:32:05;7.00;7.00;4.00
72031;PMS5003;49185;42.320;23.198;2022-07-01T12:34:38;7.00;7.00;4.00
72031;PMS5003;49185;42.320;23.198;2022-07-01T12:37:14;8.00;8.00;4.75
72031;PMS5003;49185;42.320;23.198;2022-07-01T12:39:43;7.25;7.25;4.00
72031;PMS5003;49185;42.320;23.198;2022-07-01T12:42:08;8.25;8.25;5.00
72031;PMS5003;49185;42.320;23.198;2022-07-01T12:44:44;7.50;7.50;5.00
72031;PMS5003;49185;42.320;23.198;2022-07-01T12:49:45;7.00;7.00;4.00
72031;PMS5003;49185;42.320;23.198;2022-07-01T12:52:23;7.00;6.00;3.00
72031;PMS5003;49185;42.320;23.198;2022-07-01T12:54:50;8.00;8.00;4.00
72031;PMS5003;49185;42.320;23.198;2022-07-01T12:57:16;7.00;7.00;4.00
72031;PMS5003;49185;42.320;23.198;2022-07-01T12:59:42;9.67;9.67;5.00
72031;PMS5003;49185;42.320;23.198;2022-07-01T13:02:07;10.00;8.00;4.00
72031;PMS5003;49185;42.320;23.198;2022-07-01T13:04:32;9.67;9.00;6.00
72031;PMS5003;49185;42.320;23.198;2022-07-01T13:06:58;8.00;8.00;5.00
72031;PMS5003;49185;42.320;23.198;2022-07-01T13:09:23;8.00;8.00;5.00
72031;PMS5003;49185;42.320;23.198;2022-07-01T13:11:49;7.67;7.00;5.00
72031;PMS5003;49185;42.320;23.198;2022-07-01T13:14:15;7.00;7.00;3.00
72031;PMS5003;49185;42.320;23.198;2022-07-01T13:16:40;7.00;7.00;3.00
72031;PMS5003;49185;42.320;23.198;2022-07-01T13:19:06;9.33;9.33;5.00
72031;PMS5003;49185;42.320;23.198;2022-07-01T13:21:31;7.00;7.00;5.67
72031;PMS5003;49185;42.320;23.198;2022-07-01T13:23:57;7.00;6.00;4.00
72031;PMS5003;49185;42.320;23.198;2022-07-01T13:26:22;8.33;8.00;4.00
72031;PMS5003;49185;42.320;23.198;2022-07-01T13:28:47;10.00;10.00;5.00
72031;PMS5003;49185;42.320;23.198;2022-07-01T13:31:13;8.33;8.00;4.67
72031;PMS5003;49185;42.320;23.198;2022-07-01T13:33:39;11.00;10.67;5.00
72031;PMS5003;49185;42.320;23.198;2022-07-01T13:36:04;8.00;8.00;4.33
72031;PMS5003;49185;42.320;23.198;2022-07-01T13:38:30;8.25;8.25;4.75
72031;PMS5003;49185;42.320;23.198;2022-07-01T13:40:56;9.00;9.00;4.00
72031;PMS5003;49185;42.320;23.198;2022-07-01T13:43:22;9.00;8.00;4.00
72031;PMS5003;49185;42.320;23.198;2022-07-01T13:45:47;9.00;9.00;4.33
72031;PMS5003;49185;42.320;23.198;2022-07-01T13:48:13;8.00;8.00;4.00
72031;PMS5003;49185;42.320;23.198;2022-07-01T13:50:38;8.00;8.00;4.00
72031;PMS5003;49185;42.320;23.198;2022-07-01T13:53:04;8.00;7.33;5.00
72031;PMS5003;49185;42.320;23.198;2022-07-01T13:55:29;9.00;9.00;4.00
72031;PMS5003;49185;42.320;23.198;2022-07-01T13:57:55;10.00;10.00;5.00